createdAt,value
2022-11-06T00:01:18.822Z,20.70
2022-11-06T00:03:28.010Z,20.70
2022-11-06T00:05:51.961Z,20.80
2022-11-06T00:07:59.144Z,20.80
2022-11-06T00:10:06.889Z,20.90
2022-11-06T00:12:14.068Z,20.90
2022-11-06T00:14:22.124Z,21.00
2022-11-06T00:16:29.314Z,21.00
2022-11-06T00:18:39.629Z,21.10
2022-11-06T00:20:46.997Z,21.10
2022-11-06T00:22:54.541Z,21.20
2022-11-06T00:25:01.819Z,21.20
2022-11-06T00:27:09.310Z,21.30
2022-11-06T00:29:18.128Z,21.30
2022-11-06T00:31:27.158Z,21.30
2022-11-06T00:33:34.589Z,21.30
2022-11-06T00:35:44.127Z,21.40
2022-11-06T00:37:51.724Z,21.40
2022-11-06T00:40:00.538Z,21.40
2022-11-06T00:42:08.539Z,21.40
2022-11-06T00:44:15.925Z,21.50
2022-11-06T00:46:23.515Z,21.50
2022-11-06T00:48:31.728Z,21.60
2022-11-06T00:50:39.216Z,21.60
2022-11-06T00:52:48.442Z,21.70
2022-11-06T00:54:56.031Z,21.80
2022-11-06T00:57:03.262Z,21.80
2022-11-06T00:59:13.875Z,21.90
2022-11-06T01:01:23.426Z,22.00
2022-11-06T01:03:30.801Z,22.10
2022-11-06T01:05:37.827Z,22.10
2022-11-06T01:07:47.415Z,22.20
2022-11-06T01:09:54.699Z,22.20
2022-11-06T01:12:18.180Z,22.30
2022-11-06T01:14:26.265Z,22.40
2022-11-06T01:16:34.316Z,22.40
2022-11-06T01:18:42.268Z,22.50
2022-11-06T01:20:49.857Z,22.60
2022-11-06T01:23:00.165Z,22.60
2022-11-06T01:25:07.653Z,22.70
2022-11-06T01:27:30.322Z,22.70
2022-11-06T01:29:37.939Z,22.80
2022-11-06T01:31:45.735Z,22.90
2022-11-06T01:33:53.120Z,22.90
2022-11-06T01:36:00.814Z,23.00
2022-11-06T01:38:09.716Z,23.10
2022-11-06T01:40:17.586Z,23.20
2022-11-06T01:42:25.485Z,23.20
2022-11-06T01:45:04.825Z,23.30
2022-11-06T01:47:23.730Z,23.40
2022-11-06T01:49:34.086Z,23.40
2022-11-06T01:51:45.312Z,23.50
2022-11-06T01:53:55.149Z,23.50
2022-11-06T01:56:06.789Z,23.60
2022-11-06T01:58:18.064Z,23.60
2022-11-06T02:00:25.809Z,23.70
2022-11-06T02:02:33.277Z,23.80
2022-11-06T02:04:43.039Z,23.90
2022-11-06T02:06:51.192Z,23.90
2022-11-06T02:09:00.629Z,24.00
2022-11-06T02:11:07.912Z,24.00
2022-11-06T02:13:26.104Z,24.10
2022-11-06T02:15:43.163Z,24.20
2022-11-06T02:18:06.116Z,24.20
2022-11-06T02:20:21.393Z,24.30
2022-11-06T02:22:45.882Z,24.40
2022-11-06T02:25:28.689Z,24.50
2022-11-06T02:27:38.687Z,24.60
2022-11-06T02:29:51.962Z,24.70
2022-11-06T02:32:02.940Z,24.80
2022-11-06T02:34:14.931Z,24.80
2022-11-06T02:36:27.279Z,24.90
2022-11-06T02:38:37.481Z,24.90
2022-11-06T02:40:50.129Z,25.00
2022-11-06T02:43:00.759Z,25.10
2022-11-06T02:45:10.759Z,25.10
2022-11-06T02:47:19.265Z,25.20
2022-11-06T02:49:32.487Z,25.20
2022-11-06T02:51:45.506Z,25.30
2022-11-06T02:53:53.558Z,25.40
2022-11-06T02:56:05.655Z,25.50
2022-11-06T02:58:19.952Z,25.50
2022-11-06T03:00:27.347Z,25.60
2022-11-06T03:02:41.707Z,25.60
2022-11-06T03:04:53.870Z,25.70
2022-11-06T03:07:08.698Z,25.70
2022-11-06T03:09:20.385Z,25.70
2022-11-06T03:11:27.620Z,25.70
2022-11-06T03:13:47.395Z,25.80
2022-11-06T03:16:06.254Z,25.80
2022-11-06T03:18:19.371Z,25.90
2022-11-06T03:20:34.642Z,26.00
2022-11-06T03:22:47.507Z,26.10
2022-11-06T03:25:01.806Z,26.20
2022-11-06T03:27:13.800Z,26.30
2022-11-06T03:29:32.609Z,26.30
2022-11-06T03:31:42.397Z,26.30
2022-11-06T03:33:56.030Z,26.40
2022-11-06T03:36:08.384Z,26.50
2022-11-06T03:38:20.121Z,26.60
2022-11-06T03:40:30.223Z,26.70
2022-11-06T03:42:38.786Z,26.80
2022-11-06T03:44:50.985Z,26.90
2022-11-06T03:47:01.189Z,27.00
2022-11-06T03:49:11.204Z,27.00
2022-11-06T03:51:22.706Z,27.10
2022-11-06T03:53:34.089Z,27.30
2022-11-06T03:55:46.257Z,27.30
2022-11-06T03:57:57.273Z,27.40
2022-11-06T04:00:10.702Z,27.50
2022-11-06T04:02:23.677Z,27.60
2022-11-06T04:04:35.247Z,27.70
2022-11-06T04:06:47.145Z,27.80
2022-11-06T04:09:13.218Z,27.90
2022-11-06T04:11:39.855Z,28.00
2022-11-06T04:14:02.044Z,28.00
2022-11-06T04:16:10.960Z,28.10
2022-11-06T04:18:21.981Z,28.10
2022-11-06T04:20:54.762Z,28.20
2022-11-06T04:23:11.104Z,28.20
2022-11-06T04:25:49.164Z,28.30
2022-11-06T04:28:12.277Z,28.40
2022-11-06T04:30:20.632Z,28.50
2022-11-06T04:32:36.309Z,28.30
2022-11-06T04:34:48.771Z,28.30
2022-11-06T04:37:09.162Z,28.30
2022-11-06T04:39:25.553Z,28.30
2022-11-06T04:41:38.063Z,28.40
2022-11-06T04:43:51.188Z,28.50
2022-11-06T04:46:02.664Z,28.50
2022-11-06T04:48:12.676Z,28.60
2022-11-06T04:50:23.068Z,28.60
2022-11-06T04:52:31.377Z,28.70
2022-11-06T04:54:39.231Z,28.70
2022-11-06T04:56:46.783Z,28.70
2022-11-06T04:58:54.460Z,28.70
2022-11-06T05:01:01.356Z,28.70
2022-11-06T05:03:10.265Z,28.80
2022-11-06T05:05:17.028Z,28.90
2022-11-06T05:07:24.056Z,28.90
2022-11-06T05:09:31.389Z,28.90
2022-11-06T05:11:39.444Z,29.00
2022-11-06T05:13:46.222Z,29.00
2022-11-06T05:15:58.055Z,29.00
2022-11-06T05:18:05.031Z,29.10
2022-11-06T05:20:14.722Z,29.10
2022-11-06T05:22:38.185Z,29.20
2022-11-06T05:24:45.212Z,29.20
2022-11-06T05:26:57.849Z,29.20
2022-11-06T05:29:06.604Z,29.30
2022-11-06T05:31:14.131Z,29.40
2022-11-06T05:33:21.006Z,29.40
2022-11-06T05:35:30.141Z,29.50
2022-11-06T05:37:37.416Z,29.50
2022-11-06T05:39:44.804Z,29.60
2022-11-06T05:41:51.678Z,29.60
2022-11-06T05:43:58.917Z,29.70
2022-11-06T05:46:08.987Z,29.70
2022-11-06T05:48:23.105Z,29.70
2022-11-06T05:50:32.029Z,29.60
2022-11-06T05:52:43.662Z,29.50
2022-11-06T05:54:50.490Z,29.50
2022-11-06T05:56:57.668Z,29.60
2022-11-06T05:59:05.215Z,29.60
2022-11-06T06:01:12.904Z,29.70
2022-11-06T06:03:20.085Z,29.70
2022-11-06T06:05:27.425Z,29.80
2022-11-06T06:07:36.084Z,29.90
2022-11-06T06:09:43.429Z,30.00
2022-11-06T06:11:53.367Z,30.10
2022-11-06T06:14:00.445Z,30.10
2022-11-06T06:16:08.091Z,30.10
2022-11-06T06:18:15.543Z,30.10
2022-11-06T06:20:23.016Z,30.10
2022-11-06T06:22:30.504Z,30.10
2022-11-06T06:24:39.439Z,30.00
2022-11-06T06:26:46.915Z,30.00
2022-11-06T06:28:53.692Z,30.10
2022-11-06T06:31:01.946Z,30.10
2022-11-06T06:33:10.258Z,30.10
2022-11-06T06:35:18.869Z,30.10
2022-11-06T06:37:25.592Z,30.20
2022-11-06T06:39:32.666Z,30.20
2022-11-06T06:41:41.127Z,30.10
2022-11-06T06:43:51.022Z,30.20
2022-11-06T06:46:00.252Z,30.10
2022-11-06T06:48:07.793Z,30.00
2022-11-06T06:50:14.719Z,30.00
2022-11-06T06:52:21.899Z,30.00
2022-11-06T06:54:28.727Z,30.00
2022-11-06T06:56:35.956Z,30.10
2022-11-06T06:58:44.428Z,30.10
2022-11-06T07:00:51.477Z,30.20
2022-11-06T07:02:59.090Z,30.20
2022-11-06T07:05:06.269Z,30.30
2022-11-06T07:07:13.147Z,30.30
2022-11-06T07:09:19.967Z,30.20
2022-11-06T07:11:27.511Z,30.30
2022-11-06T07:13:36.301Z,30.30
2022-11-06T07:15:45.813Z,30.30
2022-11-06T07:17:52.945Z,30.30
2022-11-06T07:20:00.332Z,30.30
2022-11-06T07:22:07.574Z,30.30
2022-11-06T07:24:15.358Z,30.40
2022-11-06T07:26:22.138Z,30.40
2022-11-06T07:28:29.261Z,30.40
2022-11-06T07:30:37.314Z,30.30
2022-11-06T07:32:46.700Z,30.40
2022-11-06T07:34:53.527Z,30.40
2022-11-06T07:37:04.006Z,30.40
2022-11-06T07:39:13.718Z,30.30
2022-11-06T07:41:21.167Z,30.40
2022-11-06T07:43:28.748Z,30.40
2022-11-06T07:45:36.654Z,30.40
2022-11-06T07:47:45.630Z,30.40
2022-11-06T07:49:53.009Z,30.40
2022-11-06T07:51:59.881Z,30.40
2022-11-06T07:54:07.062Z,30.40
2022-11-06T07:56:13.839Z,30.40
2022-11-06T07:58:21.192Z,30.30
2022-11-06T08:00:28.402Z,30.30
2022-11-06T08:02:36.016Z,30.30
2022-11-06T08:04:44.918Z,30.30
2022-11-06T08:06:52.510Z,30.30
2022-11-06T08:08:59.693Z,30.30
2022-11-06T08:11:07.997Z,30.20
2022-11-06T08:13:15.177Z,30.20
2022-11-06T08:15:22.103Z,30.30
2022-11-06T08:17:28.988Z,30.30
2022-11-06T08:19:36.064Z,30.20
2022-11-06T08:21:44.629Z,30.20
2022-11-06T08:23:52.267Z,30.20
2022-11-06T08:26:00.948Z,30.20
2022-11-06T08:28:08.113Z,30.10
2022-11-06T08:30:16.113Z,30.20
2022-11-06T08:32:23.450Z,30.20
2022-11-06T08:34:30.629Z,30.10
2022-11-06T08:36:48.389Z,30.00
2022-11-06T08:38:58.109Z,30.00
2022-11-06T08:41:10.251Z,30.00
2022-11-06T08:43:17.310Z,29.90
2022-11-06T08:45:24.611Z,29.90
2022-11-06T08:47:31.796Z,29.90
2022-11-06T08:49:39.182Z,29.90
2022-11-06T08:51:47.744Z,29.80
2022-11-06T08:53:54.829Z,29.80
2022-11-06T08:56:01.962Z,29.70
2022-11-06T08:58:10.777Z,29.70
2022-11-06T09:00:18.935Z,29.70
2022-11-06T09:02:26.873Z,29.70
2022-11-06T09:04:38.636Z,29.70
2022-11-06T09:06:50.304Z,29.60
2022-11-06T09:08:57.537Z,29.60
2022-11-06T09:11:08.467Z,29.50
2022-11-06T09:13:16.253Z,29.50
2022-11-06T09:15:23.897Z,29.40
2022-11-06T09:17:31.081Z,29.40
2022-11-06T09:19:38.430Z,29.30
2022-11-06T09:21:53.456Z,29.20
2022-11-06T09:24:03.475Z,29.20
2022-11-06T09:26:10.199Z,29.10
2022-11-06T09:28:17.325Z,29.10
2022-11-06T09:30:25.878Z,29.10
2022-11-06T09:32:33.132Z,29.10
2022-11-06T09:34:40.310Z,29.10
2022-11-06T09:36:47.948Z,29.10
2022-11-06T09:38:54.777Z,29.10
2022-11-06T09:41:04.666Z,29.10
2022-11-06T09:43:50.023Z,29.00
2022-11-06T09:45:55.095Z,29.00
2022-11-06T09:48:16.285Z,28.90
2022-11-06T09:50:28.333Z,28.90
2022-11-06T09:52:36.843Z,28.80
2022-11-06T09:54:55.832Z,28.80
2022-11-06T09:57:08.461Z,28.70
2022-11-06T09:59:20.461Z,28.70
2022-11-06T10:01:32.131Z,28.60
2022-11-06T10:03:46.851Z,28.60
2022-11-06T10:05:56.856Z,28.60
2022-11-06T10:08:05.923Z,28.50
2022-11-06T10:10:19.151Z,28.50
2022-11-06T10:12:34.063Z,28.50
2022-11-06T10:14:53.275Z,28.50
2022-11-06T10:17:09.467Z,28.50
2022-11-06T10:19:27.151Z,28.40
2022-11-06T10:21:43.095Z,28.40
2022-11-06T10:23:55.655Z,28.30
2022-11-06T10:26:12.970Z,28.30
2022-11-06T10:28:35.215Z,28.30
2022-11-06T10:30:51.134Z,28.20
2022-11-06T10:33:27.341Z,28.10
2022-11-06T10:35:38.313Z,28.00
2022-11-06T10:37:51.283Z,27.90
2022-11-06T10:39:59.697Z,27.80
2022-11-06T10:42:09.640Z,27.70
2022-11-06T10:44:24.295Z,27.60
2022-11-06T10:46:38.079Z,27.50
2022-11-06T10:48:49.920Z,27.40
2022-11-06T10:51:08.263Z,27.20
2022-11-06T10:53:24.969Z,27.10
2022-11-06T10:55:59.903Z,27.00
2022-11-06T10:58:09.136Z,26.90
2022-11-06T11:00:19.083Z,26.80
2022-11-06T11:02:33.496Z,26.70
2022-11-06T11:04:42.101Z,26.60
2022-11-06T11:06:48.866Z,26.50
2022-11-06T11:08:56.406Z,26.50
2022-11-06T11:11:06.668Z,26.40
2022-11-06T11:13:24.028Z,26.40
2022-11-06T11:15:36.381Z,26.40
2022-11-06T11:17:44.643Z,26.30
2022-11-06T11:19:52.539Z,26.30
2022-11-06T11:22:01.277Z,26.20
2022-11-06T11:24:12.444Z,26.20
2022-11-06T11:26:28.574Z,26.20
2022-11-06T11:28:39.029Z,26.10
2022-11-06T11:30:56.145Z,26.00
2022-11-06T11:33:03.582Z,25.90
2022-11-06T11:35:14.040Z,25.90
2022-11-06T11:37:28.908Z,25.80
2022-11-06T11:39:37.213Z,25.70
2022-11-06T11:41:44.445Z,25.70
2022-11-06T11:44:01.409Z,25.60
2022-11-06T11:46:22.258Z,25.50
2022-11-06T11:48:29.439Z,25.60
2022-11-06T11:50:37.697Z,25.50
2022-11-06T11:52:44.575Z,25.50
2022-11-06T11:54:55.495Z,25.40
2022-11-06T11:57:07.000Z,25.40
2022-11-06T11:59:23.491Z,25.30
2022-11-06T12:01:43.452Z,25.30
2022-11-06T12:03:53.710Z,25.30
2022-11-06T12:06:11.183Z,25.30
2022-11-06T12:08:28.141Z,25.20
2022-11-06T12:10:37.679Z,25.20
2022-11-06T12:12:53.058Z,25.10
2022-11-06T12:15:23.274Z,25.10
2022-11-06T12:17:34.959Z,25.00
2022-11-06T12:19:45.579Z,24.90
2022-11-06T12:21:57.821Z,24.80
2022-11-06T12:24:06.385Z,24.80
2022-11-06T12:26:29.082Z,24.80
2022-11-06T12:28:38.927Z,24.80
2022-11-06T12:30:48.414Z,24.90
2022-11-06T12:33:13.156Z,24.80
2022-11-06T12:35:27.097Z,24.80
2022-11-06T12:37:42.210Z,24.70
2022-11-06T12:39:56.721Z,24.70
2022-11-06T12:42:07.326Z,24.60
2022-11-06T12:44:17.127Z,24.60
2022-11-06T12:46:48.264Z,24.60
2022-11-06T12:49:30.107Z,24.50
2022-11-06T12:51:50.036Z,24.50
2022-11-06T12:54:14.834Z,24.40
2022-11-06T12:56:26.066Z,24.40
2022-11-06T12:58:54.801Z,24.30
2022-11-06T13:01:09.921Z,24.40
2022-11-06T13:03:36.911Z,24.40
2022-11-06T13:05:51.772Z,24.30
2022-11-06T13:08:26.814Z,24.30
2022-11-06T13:10:46.333Z,24.40
2022-11-06T13:13:04.928Z,24.40
2022-11-06T13:15:23.732Z,24.30
2022-11-06T13:17:34.392Z,24.30
2022-11-06T13:19:44.952Z,24.30
2022-11-06T13:22:20.352Z,24.40
2022-11-06T13:24:34.195Z,24.30
2022-11-06T13:26:45.461Z,24.30
2022-11-06T13:28:58.126Z,24.20
2022-11-06T13:31:07.659Z,24.20
2022-11-06T13:33:20.886Z,24.20
2022-11-06T13:35:28.421Z,24.20
2022-11-06T13:37:42.671Z,24.20
2022-11-06T13:39:55.381Z,24.20
2022-11-06T13:42:03.639Z,24.10
2022-11-06T13:44:16.963Z,24.10
2022-11-06T13:46:30.647Z,24.20
2022-11-06T13:48:46.994Z,24.20
2022-11-06T13:51:01.445Z,24.10
2022-11-06T13:53:18.048Z,24.10
2022-11-06T13:55:38.807Z,24.10
2022-11-06T13:58:19.213Z,24.10
2022-11-06T14:00:27.056Z,24.10
2022-11-06T14:03:00.916Z,24.00
2022-11-06T14:05:55.557Z,24.00
2022-11-06T14:10:50.533Z,23.90
2022-11-06T14:12:58.011Z,23.80
2022-11-06T14:15:24.651Z,23.80
2022-11-06T14:17:31.676Z,23.80
2022-11-06T14:19:39.117Z,23.80
2022-11-06T14:21:55.240Z,23.70
2022-11-06T14:24:10.889Z,23.60
2022-11-06T14:26:41.008Z,23.60
2022-11-06T14:28:48.579Z,23.60
2022-11-06T14:31:12.665Z,23.60
2022-11-06T14:33:56.874Z,23.50
2022-11-06T14:36:16.705Z,23.40
2022-11-06T14:38:43.633Z,23.40
2022-11-06T14:40:51.043Z,23.40
2022-11-06T14:45:22.043Z,23.40
2022-11-06T14:47:46.896Z,23.40
2022-11-06T14:50:17.974Z,23.40
2022-11-06T14:52:26.999Z,23.40
2022-11-06T14:54:36.559Z,23.40
2022-11-06T14:56:43.410Z,23.40
2022-11-06T14:58:57.097Z,23.40
2022-11-06T15:01:15.689Z,23.30
2022-11-06T15:03:29.795Z,23.30
2022-11-06T15:05:42.430Z,23.30
2022-11-06T15:08:05.692Z,23.30
2022-11-06T15:10:53.193Z,23.30
2022-11-06T15:13:13.852Z,23.30
2022-11-06T15:15:23.985Z,23.30
2022-11-06T15:17:37.010Z,23.30
2022-11-06T15:19:46.598Z,23.30
2022-11-06T15:21:58.928Z,23.30
2022-11-06T15:24:10.251Z,23.20
2022-11-06T15:26:26.975Z,23.30
2022-11-06T15:28:41.438Z,23.20
2022-11-06T15:30:52.703Z,23.20
2022-11-06T15:33:00.961Z,23.20
2022-11-06T15:35:11.626Z,23.10
2022-11-06T15:37:22.953Z,23.00
2022-11-06T15:39:41.711Z,22.90
2022-11-06T15:41:49.502Z,22.80
2022-11-06T15:43:58.212Z,22.80
2022-11-06T15:46:22.658Z,22.70
2022-11-06T15:48:29.439Z,22.70
2022-11-06T15:50:38.197Z,22.60
2022-11-06T15:52:45.795Z,22.50
2022-11-06T15:54:59.872Z,22.50
2022-11-06T15:57:10.911Z,22.50
2022-11-06T15:59:19.829Z,22.30
2022-11-06T16:01:36.797Z,22.30
2022-11-06T16:03:54.208Z,22.30
2022-11-06T16:06:03.783Z,22.20
2022-11-06T16:08:11.580Z,22.30
2022-11-06T16:10:20.525Z,22.30
2022-11-06T16:12:27.910Z,22.30
2022-11-06T16:14:35.543Z,22.30
2022-11-06T16:16:47.491Z,22.40
2022-11-06T16:18:55.143Z,22.40
2022-11-06T16:21:04.932Z,22.30
2022-11-06T16:23:16.531Z,22.20
2022-11-06T16:25:24.461Z,22.30
2022-11-06T16:27:37.427Z,22.30
2022-11-06T16:29:51.261Z,22.40
2022-11-06T16:32:10.321Z,22.40
2022-11-06T16:34:35.714Z,22.30
2022-11-06T16:37:01.088Z,22.40
2022-11-06T16:39:50.401Z,22.40
2022-11-06T16:42:05.220Z,22.30
2022-11-06T16:44:31.381Z,22.20
2022-11-06T16:47:19.956Z,22.20
2022-11-06T16:49:36.141Z,22.20
2022-11-06T16:51:42.908Z,22.10
2022-11-06T16:53:59.361Z,22.10
2022-11-06T16:56:09.001Z,22.10
2022-11-06T16:58:20.533Z,22.10
2022-11-06T17:00:30.230Z,22.00
2022-11-06T17:02:41.608Z,22.00
2022-11-06T17:04:48.792Z,22.10
2022-11-06T17:06:57.203Z,22.10
2022-11-06T17:09:10.420Z,22.10
2022-11-06T17:11:24.256Z,22.10
2022-11-06T17:13:34.461Z,22.10
2022-11-06T17:15:41.488Z,22.10
2022-11-06T17:17:52.356Z,22.10
2022-11-06T17:19:59.894Z,22.10
2022-11-06T17:22:12.817Z,22.00
2022-11-06T17:24:37.093Z,22.00
2022-11-06T17:26:48.324Z,21.90
2022-11-06T17:28:55.450Z,21.90
2022-11-06T17:31:02.429Z,22.00
2022-11-06T17:33:11.389Z,21.90
2022-11-06T17:35:18.994Z,21.90
2022-11-06T17:37:26.439Z,21.90
2022-11-06T17:39:35.666Z,22.00
2022-11-06T17:41:42.533Z,22.00
2022-11-06T17:43:49.612Z,21.90
2022-11-06T17:45:56.493Z,21.90
2022-11-06T17:48:03.618Z,21.90
2022-11-06T17:50:13.105Z,21.90
2022-11-06T17:52:18.857Z,21.90
2022-11-06T17:54:27.170Z,21.90
2022-11-06T17:56:37.964Z,21.90
2022-11-06T17:58:45.469Z,21.90
2022-11-06T18:00:52.903Z,21.90
2022-11-06T18:03:02.301Z,21.90
2022-11-06T18:05:12.181Z,21.90
2022-11-06T18:07:19.157Z,21.90
2022-11-06T18:09:26.858Z,21.90
2022-11-06T18:11:34.135Z,21.90
2022-11-06T18:13:41.522Z,21.80
2022-11-06T18:15:48.297Z,21.90
2022-11-06T18:17:55.579Z,21.90
2022-11-06T18:20:02.650Z,21.90
2022-11-06T18:22:12.141Z,21.80
2022-11-06T18:24:19.273Z,21.90
2022-11-06T18:26:26.915Z,21.90
2022-11-06T18:28:34.308Z,21.90
2022-11-06T18:30:42.250Z,21.90
2022-11-06T18:32:49.388Z,21.90
2022-11-06T18:34:56.930Z,21.90
2022-11-06T18:37:03.642Z,21.90
2022-11-06T18:39:13.130Z,21.90
2022-11-06T18:41:22.665Z,21.90
2022-11-06T18:43:29.596Z,21.90
2022-11-06T18:45:36.623Z,21.90
2022-11-06T18:47:43.652Z,21.80
2022-11-06T18:49:51.033Z,21.70
2022-11-06T18:51:58.163Z,21.70
2022-11-06T18:54:07.597Z,21.70
2022-11-06T18:56:18.056Z,21.70
2022-11-06T18:58:25.697Z,21.70
2022-11-06T19:00:32.835Z,21.70
2022-11-06T19:02:39.996Z,21.60
2022-11-06T19:04:47.073Z,21.60
2022-11-06T19:06:54.219Z,21.60
2022-11-06T19:09:01.099Z,21.50
2022-11-06T19:11:09.862Z,21.50
2022-11-06T19:13:18.384Z,21.50
2022-11-06T19:15:25.453Z,21.50
2022-11-06T19:17:32.178Z,21.50
2022-11-06T19:19:39.715Z,21.40
2022-11-06T19:21:48.945Z,21.40
2022-11-06T19:24:02.716Z,21.30
2022-11-06T19:28:41.572Z,21.30
2022-11-06T19:30:48.647Z,21.30
2022-11-06T19:32:56.295Z,21.30
2022-11-06T19:35:03.165Z,21.30
2022-11-06T19:37:10.243Z,21.20
2022-11-06T19:39:17.732Z,21.20
2022-11-06T19:41:25.584Z,21.10
2022-11-06T19:43:32.866Z,21.10
2022-11-06T19:45:41.940Z,21.00
2022-11-06T19:47:49.124Z,21.00
2022-11-06T19:49:56.560Z,21.00
2022-11-06T19:52:41.452Z,21.00
2022-11-06T19:54:30.531Z,20.90
2022-11-06T19:56:37.304Z,20.90
2022-11-06T19:59:04.708Z,20.90
2022-11-06T20:01:15.344Z,20.90
2022-11-06T20:03:22.502Z,20.90
2022-11-06T20:05:29.685Z,21.00
2022-11-06T20:07:38.861Z,21.00
2022-11-06T20:09:45.636Z,21.00
2022-11-06T20:11:54.663Z,21.00
2022-11-06T20:14:01.791Z,20.90
2022-11-06T20:16:12.556Z,20.90
2022-11-06T20:18:21.078Z,20.80
2022-11-06T20:20:33.274Z,20.90
2022-11-06T20:22:42.710Z,20.90
2022-11-06T20:24:49.934Z,21.00
2022-11-06T20:26:56.720Z,21.00
2022-11-06T20:29:03.939Z,21.00
2022-11-06T20:31:14.302Z,21.10
2022-11-06T20:33:22.143Z,21.10
2022-11-06T20:35:29.735Z,21.10
2022-11-06T20:37:37.434Z,21.10
2022-11-06T20:39:44.252Z,21.20
2022-11-06T20:41:51.849Z,21.10
2022-11-06T20:43:59.128Z,21.00
2022-11-06T20:46:07.279Z,20.90
2022-11-06T20:48:16.458Z,20.80
2022-11-06T20:50:23.641Z,20.70
2022-11-06T20:52:30.873Z,20.70
2022-11-06T20:54:41.231Z,20.70
2022-11-06T20:56:52.055Z,20.80
2022-11-06T20:59:00.047Z,20.80
2022-11-06T21:01:07.875Z,20.80
2022-11-06T21:03:16.963Z,20.70
2022-11-06T21:05:23.843Z,20.80
2022-11-06T21:07:31.331Z,20.70
2022-11-06T21:09:38.622Z,20.70
2022-11-06T21:11:45.902Z,20.70
2022-11-06T21:13:55.182Z,20.70
2022-11-06T21:16:03.029Z,20.70
2022-11-06T21:18:10.056Z,20.70
2022-11-06T21:20:22.561Z,20.70
2022-11-06T21:22:30.566Z,20.70
2022-11-06T21:24:38.264Z,20.70
2022-11-06T21:26:45.797Z,20.70
2022-11-06T21:28:52.980Z,20.70
2022-11-06T21:31:00.061Z,20.70
2022-11-06T21:33:07.292Z,20.60
2022-11-06T21:35:16.878Z,20.60
2022-11-06T21:37:33.735Z,20.50
2022-11-06T21:39:41.520Z,20.50
2022-11-06T21:41:49.072Z,20.50
2022-11-06T21:43:56.663Z,20.50
2022-11-06T21:46:05.485Z,20.40
2022-11-06T21:48:40.283Z,20.40
2022-11-06T21:50:41.149Z,20.50
2022-11-06T21:53:04.714Z,20.50
2022-11-06T21:55:44.255Z,20.50
2022-11-06T21:57:51.843Z,20.40
2022-11-06T21:59:58.719Z,20.40
2022-11-06T22:02:06.063Z,20.50
2022-11-06T22:04:14.053Z,20.50
2022-11-06T22:06:25.794Z,20.50
2022-11-06T22:08:32.975Z,20.40
2022-11-06T22:10:40.617Z,20.40
2022-11-06T22:12:47.442Z,20.30
2022-11-06T22:14:54.573Z,20.30
2022-11-06T22:17:01.401Z,20.20
2022-11-06T22:19:10.164Z,20.20
2022-11-06T22:21:18.623Z,20.20
2022-11-06T22:23:27.803Z,20.10
2022-11-06T22:25:35.144Z,20.00
2022-11-06T22:27:42.267Z,20.00
2022-11-06T22:29:49.401Z,20.10
2022-11-06T22:31:56.692Z,20.10
2022-11-06T22:34:03.972Z,20.10
2022-11-06T22:36:12.582Z,20.10
2022-11-06T22:38:19.915Z,20.20
2022-11-06T22:40:28.642Z,20.20
2022-11-06T22:42:36.536Z,20.20
2022-11-06T22:44:43.406Z,20.20
2022-11-06T22:46:50.690Z,20.20
2022-11-06T22:48:57.925Z,20.10
2022-11-06T22:51:06.438Z,20.10
2022-11-06T22:53:15.227Z,20.10
2022-11-06T22:55:22.441Z,20.10
2022-11-06T22:57:30.903Z,20.00
2022-11-06T22:59:38.648Z,20.10
2022-11-06T23:01:45.547Z,20.10
2022-11-06T23:03:57.410Z,20.20
2022-11-06T23:06:07.408Z,20.20
2022-11-06T23:08:14.846Z,20.10
2022-11-06T23:10:29.759Z,20.00
2022-11-06T23:12:38.740Z,20.00
2022-11-06T23:14:45.966Z,20.00
2022-11-06T23:17:03.181Z,20.00
2022-11-06T23:19:10.467Z,20.00
2022-11-06T23:21:19.343Z,19.90
2022-11-06T23:23:26.522Z,19.90
2022-11-06T23:25:34.418Z,19.90
2022-11-06T23:27:49.482Z,20.00
2022-11-06T23:30:01.537Z,20.00
2022-11-06T23:32:09.377Z,20.00
2022-11-06T23:34:16.813Z,20.10
2022-11-06T23:36:23.639Z,20.20
2022-11-06T23:38:30.818Z,20.30
2022-11-06T23:40:37.900Z,20.30
2022-11-06T23:42:47.076Z,20.40
2022-11-06T23:45:10.845Z,20.40
2022-11-06T23:47:18.541Z,20.40
2022-11-06T23:49:25.466Z,20.50
2022-11-06T23:51:32.598Z,20.40
2022-11-06T23:53:39.373Z,20.40
2022-11-06T23:55:46.758Z,20.30
2022-11-06T23:57:55.268Z,20.40
